Reno, NV (89501)

11:24 PM PDT on September 18, 2014 (GMT -0700)
MidTown | Change Station
CLOSE
Current Station
Personal Weather Station
Location: Reno, NV
Elevation: 4491 ft
Nearby Weather Stations

Elev 4491 ft 39.52 °N, 119.81 °W | Updated 3 minutes ago

Mostly Cloudy
Mostly Cloudy
63.7 °F
Feels Like 63.7 °F
N
-
Wind Variable Wind from North

Today
High -- | Low -- °F
--% Chance of Precip.
Yesterday
High -- | Low -- °F
Precip. -- in
6:43 AM 7:02 PM
Waning Crescent, 21% visible
Pressure 29.86 in
Visibility 10.0 miles
Clouds Scattered Clouds 6000 ft
Mostly Cloudy 10000 ft
Dew Point 51 °F
Humidity 68%
Rainfall 0.06 in
Snow Depth 0 in , 0 in , 0 in
UV 0 out of 12
Pollen 6.90 out of 12
Air Quality Not available.
Flu Activity Not available.
METAR KRNO 190555Z 36005KT 10SM SCT060 BKN100 19/06 A3002 RMK AO2 SLP112 OCNL LTG DSNT NE HZ FU ALQDS 60001 T01890061 10239 20189 51021 $

More Conditions Fewer Conditions

Pressure 29.86 in
Visibility 10.0 miles
Clouds Scattered Clouds 6000 ft
Mostly Cloudy 10000 ft
Dew Point 51 °F
Humidity 68%
Rainfall 0.06 in
Snow Depth 0 in , 0 in , 0 in
UV 0 out of 12
Pollen 6.90 out of 12
Air Quality Not available.
Flu Activity Not available.
METAR KRNO 190555Z 36005KT 10SM SCT060 BKN100 19/06 A3002 RMK AO2 SLP112 OCNL LTG DSNT NE HZ FU ALQDS 60001 T01890061 10239 20189 51021 $

More Conditions Fewer Conditions

10-Day Weather Forecast

Almanac

Astronomy

Sep. 18, 2014 Rise Set
Actual Time 6:43 AM PDT 7:02 PM PDT
Civil Twilight 6:16 AM PDT 7:29 PM PDT
Nautical Twilight 5:44 AM PDT 8:01 PM PDT
Astronomical Twilight 5:12 AM PDT 8:33 PM PDT
Moon 1:40 AM PDT (9/18) 3:56 PM PDT (9/18)
Length of Visible Light 13h 13m
Length of Day
12h 19m
Tomorrow will be 2m 33s shorter.
Waning Crescent, 21% of the Moon is Illuminated
Sep 19
Waning Crescent
Sep 24
New
Oct 1
First Quarter
Oct 8
Full
Oct 15
Last Quarter

Yesterday's Extremes

State Highs State Lows

Community

WunderPhotos

Upload Photos

1,754,575 photos uploaded!

Nearby

Snow Depth

Station Depth Elevation
Green Mountain 0 in 8000 ft
Lewis Peak 0 in 7400 ft
Dorsey Basin 0 in 8100 ft
Jacks Peak 4 in 8420 ft
Granite Peak 1 in 7800 ft

Earthquake Activity

City Distance Mag. Time & Date
No recent earthquake activity has been reported nearby.
Minimum magnitude displayed is 2.5.

Coastal Water Temperatures

Place Temperature
No Stations Reporting

Nearby Weather Stations